Jena Marie C. — WDD4969 — position and weather

sailwx.info

Track history (hours):
 
Tides and Currents Weather Stations Pressure Air Temp Water Temp Dewpoint Dewpoint Depression Visibility Wind Speed Wind Dir Waves Ship Positions

Jena Marie C.

Owner: Scott C. Marine Towing, LLC, Marrero, LA. More information available from US FCC via Universal Licensing System and Coast Guard Vessel Documentation Center.

Last reported at 2016-May-27 01:33 UTC. Time now 2016-May-28 20:43 UTC.
Position N 30°00' W 089°56'.

Length 19 m; draft 2.5 m.

Type: Towing. MMSI: 367151880.

Date/timePositionNaut miles runAvg speedWind from/ knotsBaromVisibWave heightAir tempDewpointWater temp
2016-May-27 01:33N 30°00' W 089°56'5 4.9
2016-May-27 00:33N 29°59' W 090°01'2 1.5
2016-May-26 23:33N 29°58' W 090°02'0 0.0
2016-May-26 22:33N 29°58' W 090°02'1 0.5
2016-May-26 21:33N 29°57' W 090°02'0 0.0
2016-May-26 20:33N 29°57' W 090°02'0 0.0
2016-May-26 19:33N 29°57' W 090°02'0 0.0
2016-May-26 18:33N 29°57' W 090°02'0 0.0
2016-May-26 17:33N 29°57' W 090°02'0 0.0
2016-May-26 16:33N 29°57' W 090°02'0 0.0
2016-May-26 15:33N 29°57' W 090°02'0 0.0
2016-May-26 14:33N 29°57' W 090°02'0 0.0
2016-May-26 13:33N 29°57' W 090°02'1 1.0
2016-May-26 12:33N 29°58' W 090°03'5 4.9
2016-May-26 11:33N 29°56' W 090°08'5 0.5
2016-May-26 01:21N 29°57' W 090°14'3 3.5
2016-May-26 00:33N 29°56' W 090°11'3 3.2
2016-May-25 23:33N 29°55' W 090°08'4 3.5
2016-May-25 22:33N 29°55' W 090°04'0 0.0
2016-May-25 21:33N 29°55' W 090°04'6 6.0
2016-May-25 20:31N 29°56' W 090°11'1 0.9
2016-May-25 19:33N 29°57' W 090°10'4 3.6
2016-May-25 18:33N 29°55' W 090°07'4 4.4
2016-May-25 17:33N 29°57' W 090°03'1 1.3
2016-May-25 16:33N 29°58' W 090°02'2 2.0
2016-May-25 15:33N 30°00' W 090°01'0 0.2
2016-May-25 14:33N 30°00' W 090°02'0 0.2
2016-May-25 13:33N 30°00' W 090°01'0 0.0
2016-May-25 12:33N 30°00' W 090°01'0 0.0
2016-May-25 11:33N 30°00' W 090°01'0 0.0
2016-May-25 10:33N 30°00' W 090°01'4 3.9
2016-May-25 09:33N 30°00' W 089°57'  
2016-May-22 09:33N 29°56' W 090°12'0 0.0
2016-May-22 08:34N 29°56' W 090°12'0 0.0
2016-May-22 07:33N 29°56' W 090°12'0 0.0
2016-May-22 06:34N 29°56' W 090°12'0 0.0
2016-May-22 05:18N 29°56' W 090°12'0 0.0
2016-May-21 23:23N 29°56' W 090°12'0 0.0
2016-May-21 13:33N 29°56' W 090°12'0 0.0
2016-May-21 04:33N 29°56' W 090°12'0 0.0
2016-May-21 03:27N 29°56' W 090°12'0 0.0
2016-May-21 02:10N 29°56' W 090°12'0 0.0
2016-May-21 01:19N 29°56' W 090°12'0 0.0
2016-May-20 13:29N 29°56' W 090°12'0 0.0
2016-May-20 12:32N 29°56' W 090°12'0 0.0
2016-May-20 11:32N 29°56' W 090°12'0 0.0
2016-May-20 10:32N 29°56' W 090°12'0 0.0
2016-May-20 09:32N 29°56' W 090°12'0 0.0
2016-May-20 08:33N 29°56' W 090°12'0 0.2
2016-May-20 07:33N 29°56' W 090°12'0 0.0
2016-May-20 06:33N 29°56' W 090°12'0 0.0
2016-May-20 05:33N 29°56' W 090°12'0 0.1
2016-May-20 03:33N 29°56' W 090°12'0 0.0
2016-May-20 02:17N 29°56' W 090°12'0 0.0
2016-May-19 23:24N 29°56' W 090°12'0 0.0
2016-May-19 22:32N 29°56' W 090°12'0 0.0
2016-May-19 21:27N 29°56' W 090°12'0 0.0
2016-May-19 20:31N 29°56' W 090°12'0 0.0
2016-May-19 19:26N 29°56' W 090°12'0 0.0
2016-May-19 18:28N 29°56' W 090°12'0 0.0
2016-May-19 17:33N 29°56' W 090°12'0 0.0
2016-May-19 16:28N 29°56' W 090°12'0 0.0
2016-May-19 15:28N 29°56' W 090°12'0 0.0
2016-May-19 14:18N 29°56' W 090°12'0 0.0
2016-May-19 13:27N 29°56' W 090°12'0 0.0
2016-May-19 12:32N 29°55' W 090°12'0 0.2
2016-May-19 11:32N 29°56' W 090°12'0 0.0
2016-May-19 10:33N 29°56' W 090°12'0 0.0
2016-May-19 09:33N 29°56' W 090°12'0 0.0
2016-May-19 08:33N 29°56' W 090°12'0 0.0
2016-May-19 07:29N 29°56' W 090°12'3 3.4
2016-May-19 06:33N 29°57' W 090°09'4 4.1
2016-May-19 05:33N 29°55' W 090°05'4 3.9
2016-May-19 04:33N 29°57' W 090°01'5 4.6
2016-May-19 03:33N 29°55' W 089°56'3 3.1
2016-May-19 02:33N 29°52' W 089°56'0 0.4
2016-May-19 01:33N 29°52' W 089°57'0 0.0
2016-May-19 00:33N 29°52' W 089°57'0 0.0
2016-May-18 23:33N 29°52' W 089°57'0 0.0
2016-May-18 22:33N 29°52' W 089°57'0 0.0
2016-May-18 21:33N 29°52' W 089°57'0 0.0
2016-May-18 20:32N 29°52' W 089°57'0 0.0
2016-May-18 19:23N 29°52' W 089°57'0 0.0
2016-May-18 18:33N 29°52' W 089°57'3 2.6
2016-May-18 17:33N 29°54' W 089°54'8 8.1
2016-May-18 16:33N 29°56' W 090°03'5 4.9
2016-May-18 15:33N 29°57' W 090°09'3 1.0
2016-May-18 12:33N 29°56' W 090°12'0 0.0
2016-May-18 10:29N 29°56' W 090°12'0 0.0
2016-May-18 09:33N 29°56' W 090°12'0 0.0
2016-May-18 07:33N 29°56' W 090°12'0 0.1
2016-May-18 04:23N 29°55' W 090°12'0 0.2
2016-May-18 03:33N 29°56' W 090°12'0 0.0
2016-May-18 02:25N 29°56' W 090°12'0 0.0
2016-May-18 01:18N 29°56' W 090°12'0 0.0
2016-May-17 23:18N 29°56' W 090°12'0 0.0
2016-May-17 21:09N 29°56' W 090°12'0 0.0
2016-May-17 20:33N 29°56' W 090°12'0 0.0
2016-May-17 18:28N 29°56' W 090°12'2 2.4
2016-May-17 17:32N 29°57' W 090°10'3 3.6
2016-May-17 16:33N 29°54' W 090°07'0 0.0
2016-May-17 15:33N 29°54' W 090°07'2 1.6
2016-May-17 14:33N 29°55' W 090°05'2 1.6
2016-May-17 13:34N 29°54' W 090°07'1 1.2
2016-May-17 12:34N 29°55' W 090°06'1 1.2
2016-May-17 11:33N 29°54' W 090°07'0 0.2
2016-May-17 10:33N 29°54' W 090°07'0 0.2
2016-May-17 09:33N 29°54' W 090°07'0 0.0
2016-May-17 08:33N 29°54' W 090°07'0 0.2
2016-May-17 07:33N 29°54' W 090°07'0 0.2
2016-May-17 06:33N 29°54' W 090°07'0 0.1
2016-May-17 05:33N 29°54' W 090°07'0 0.4
2016-May-17 04:33N 29°54' W 090°07'0 0.4
2016-May-17 03:34N 29°54' W 090°07'0 0.0
2016-May-17 02:33N 29°54' W 090°07'0 0.0
2016-May-17 01:33N 29°54' W 090°07'  
Track history (hours):
 
Tides and Currents Weather Stations Pressure Air Temp Water Temp Dewpoint Dewpoint Depression Visibility Wind Speed Wind Dir Waves Ship Positions

Jena Marie C.

Owner: Scott C. Marine Towing, LLC, Marrero, LA. More information available from US FCC via Universal Licensing System and Coast Guard Vessel Documentation Center.

Last reported at 2016-May-27 01:33 UTC. Time now 2016-May-28 20:43 UTC.
Position N 30°00' W 089°56'.

Length 19 m; draft 2.5 m.

Type: Towing. MMSI: 367151880.

Date/timePositionNaut miles runAvg speedWind from/ knotsBaromVisibWave heightAir tempDewpointWater temp
2016-May-27 01:33N 30°00' W 089°56'5 4.9
2016-May-27 00:33N 29°59' W 090°01'2 1.5
2016-May-26 23:33N 29°58' W 090°02'0 0.0
2016-May-26 22:33N 29°58' W 090°02'1 0.5
2016-May-26 21:33N 29°57' W 090°02'0 0.0
2016-May-26 20:33N 29°57' W 090°02'0 0.0
2016-May-26 19:33N 29°57' W 090°02'0 0.0
2016-May-26 18:33N 29°57' W 090°02'0 0.0
2016-May-26 17:33N 29°57' W 090°02'0 0.0
2016-May-26 16:33N 29°57' W 090°02'0 0.0
2016-May-26 15:33N 29°57' W 090°02'0 0.0
2016-May-26 14:33N 29°57' W 090°02'0 0.0
2016-May-26 13:33N 29°57' W 090°02'1 1.0
2016-May-26 12:33N 29°58' W 090°03'5 4.9
2016-May-26 11:33N 29°56' W 090°08'5 0.5
2016-May-26 01:21N 29°57' W 090°14'3 3.5
2016-May-26 00:33N 29°56' W 090°11'3 3.2
2016-May-25 23:33N 29°55' W 090°08'4 3.5
2016-May-25 22:33N 29°55' W 090°04'0 0.0
2016-May-25 21:33N 29°55' W 090°04'6 6.0
2016-May-25 20:31N 29°56' W 090°11'1 0.9
2016-May-25 19:33N 29°57' W 090°10'4 3.6
2016-May-25 18:33N 29°55' W 090°07'4 4.4
2016-May-25 17:33N 29°57' W 090°03'1 1.3
2016-May-25 16:33N 29°58' W 090°02'2 2.0
2016-May-25 15:33N 30°00' W 090°01'0 0.2
2016-May-25 14:33N 30°00' W 090°02'0 0.2
2016-May-25 13:33N 30°00' W 090°01'0 0.0
2016-May-25 12:33N 30°00' W 090°01'0 0.0
2016-May-25 11:33N 30°00' W 090°01'0 0.0
2016-May-25 10:33N 30°00' W 090°01'4 3.9
2016-May-25 09:33N 30°00' W 089°57'  
2016-May-22 09:33N 29°56' W 090°12'0 0.0
2016-May-22 08:34N 29°56' W 090°12'0 0.0
2016-May-22 07:33N 29°56' W 090°12'0 0.0
2016-May-22 06:34N 29°56' W 090°12'0 0.0
2016-May-22 05:18N 29°56' W 090°12'0 0.0
2016-May-21 23:23N 29°56' W 090°12'0 0.0
2016-May-21 13:33N 29°56' W 090°12'0 0.0
2016-May-21 04:33N 29°56' W 090°12'0 0.0
2016-May-21 03:27N 29°56' W 090°12'0 0.0
2016-May-21 02:10N 29°56' W 090°12'0 0.0
2016-May-21 01:19N 29°56' W 090°12'0 0.0
2016-May-20 13:29N 29°56' W 090°12'0 0.0
2016-May-20 12:32N 29°56' W 090°12'0 0.0
2016-May-20 11:32N 29°56' W 090°12'0 0.0
2016-May-20 10:32N 29°56' W 090°12'0 0.0
2016-May-20 09:32N 29°56' W 090°12'0 0.0
2016-May-20 08:33N 29°56' W 090°12'0 0.2
2016-May-20 07:33N 29°56' W 090°12'0 0.0
2016-May-20 06:33N 29°56' W 090°12'0 0.0
2016-May-20 05:33N 29°56' W 090°12'0 0.1
2016-May-20 03:33N 29°56' W 090°12'0 0.0
2016-May-20 02:17N 29°56' W 090°12'0 0.0
2016-May-19 23:24N 29°56' W 090°12'0 0.0
2016-May-19 22:32N 29°56' W 090°12'0 0.0
2016-May-19 21:27N 29°56' W 090°12'0 0.0
2016-May-19 20:31N 29°56' W 090°12'0 0.0
2016-May-19 19:26N 29°56' W 090°12'0 0.0
2016-May-19 18:28N 29°56' W 090°12'0 0.0
2016-May-19 17:33N 29°56' W 090°12'0 0.0
2016-May-19 16:28N 29°56' W 090°12'0 0.0
2016-May-19 15:28N 29°56' W 090°12'0 0.0
2016-May-19 14:18N 29°56' W 090°12'0 0.0
2016-May-19 13:27N 29°56' W 090°12'0 0.0
2016-May-19 12:32N 29°55' W 090°12'0 0.2
2016-May-19 11:32N 29°56' W 090°12'0 0.0
2016-May-19 10:33N 29°56' W 090°12'0 0.0
2016-May-19 09:33N 29°56' W 090°12'0 0.0
2016-May-19 08:33N 29°56' W 090°12'0 0.0
2016-May-19 07:29N 29°56' W 090°12'3 3.4
2016-May-19 06:33N 29°57' W 090°09'4 4.1
2016-May-19 05:33N 29°55' W 090°05'4 3.9
2016-May-19 04:33N 29°57' W 090°01'5 4.6
2016-May-19 03:33N 29°55' W 089°56'3 3.1
2016-May-19 02:33N 29°52' W 089°56'0 0.4
2016-May-19 01:33N 29°52' W 089°57'0 0.0
2016-May-19 00:33N 29°52' W 089°57'0 0.0
2016-May-18 23:33N 29°52' W 089°57'0 0.0
2016-May-18 22:33N 29°52' W 089°57'0 0.0
2016-May-18 21:33N 29°52' W 089°57'0 0.0
2016-May-18 20:32N 29°52' W 089°57'0 0.0
2016-May-18 19:23N 29°52' W 089°57'0 0.0
2016-May-18 18:33N 29°52' W 089°57'3 2.6
2016-May-18 17:33N 29°54' W 089°54'8 8.1
2016-May-18 16:33N 29°56' W 090°03'5 4.9
2016-May-18 15:33N 29°57' W 090°09'3 1.0
2016-May-18 12:33N 29°56' W 090°12'0 0.0
2016-May-18 10:29N 29°56' W 090°12'0 0.0
2016-May-18 09:33N 29°56' W 090°12'0 0.0
2016-May-18 07:33N 29°56' W 090°12'0 0.1
2016-May-18 04:23N 29°55' W 090°12'0 0.2
2016-May-18 03:33N 29°56' W 090°12'0 0.0
2016-May-18 02:25N 29°56' W 090°12'0 0.0
2016-May-18 01:18N 29°56' W 090°12'0 0.0
2016-May-17 23:18N 29°56' W 090°12'0 0.0
2016-May-17 21:09N 29°56' W 090°12'0 0.0
2016-May-17 20:33N 29°56' W 090°12'0 0.0
2016-May-17 18:28N 29°56' W 090°12'2 2.4
2016-May-17 17:32N 29°57' W 090°10'3 3.6
2016-May-17 16:33N 29°54' W 090°07'0 0.0
2016-May-17 15:33N 29°54' W 090°07'2 1.6
2016-May-17 14:33N 29°55' W 090°05'2 1.6
2016-May-17 13:34N 29°54' W 090°07'1 1.2
2016-May-17 12:34N 29°55' W 090°06'1 1.2
2016-May-17 11:33N 29°54' W 090°07'0 0.2
2016-May-17 10:33N 29°54' W 090°07'0 0.2
2016-May-17 09:33N 29°54' W 090°07'0 0.0
2016-May-17 08:33N 29°54' W 090°07'0 0.2
2016-May-17 07:33N 29°54' W 090°07'0 0.2
2016-May-17 06:33N 29°54' W 090°07'0 0.1
2016-May-17 05:33N 29°54' W 090°07'0 0.4
2016-May-17 04:33N 29°54' W 090°07'0 0.4
2016-May-17 03:34N 29°54' W 090°07'0 0.0
2016-May-17 02:33N 29°54' W 090°07'0 0.0
2016-May-17 01:33N 29°54' W 090°07'  

Dump ship's entire track history